Time;durP1;ratioP1;P1;durP2;ratioP2;P2;SDS_P1;SDS_P2;PMS_P1;PMS_P2;Temp;Humidity;BMP_temperature;BMP_pressure;BME280_temperature;BME280_humidity;BME280_pressure;Samples;Min_cycle;Max_cycle;Signal;HPM_P1;HPM_P2
2021/07/19 00:01:23;;;;;;;11.50;9.82;;;27.00;95.10;;;;;;6344602;22;20007;-90
2021/07/19 00:03:49;;;;;;;11.35;10.00;;;27.00;95.10;;;;;;6343797;22;20004;-90
2021/07/19 00:06:15;;;;;;;12.13;10.20;;;27.00;95.20;;;;;;6344444;22;19999;-90
2021/07/19 00:08:41;;;;;;;11.00;9.90;;;27.00;95.20;;;;;;6344283;22;19994;-90
2021/07/19 00:11:06;;;;;;;12.10;9.70;;;27.00;95.20;;;;;;6345419;22;20005;-90
2021/07/19 00:13:32;;;;;;;11.43;10.23;;;26.90;95.20;;;;;;6344213;22;20026;-90
2021/07/19 00:15:58;;;;;;;12.20;9.93;;;26.90;95.20;;;;;;6344133;22;20039;-90
2021/07/19 00:18:24;;;;;;;13.20;9.68;;;26.90;95.30;;;;;;6344808;22;20003;-90
2021/07/19 00:20:51;;;;;;;11.15;9.75;;;26.90;95.30;;;;;;6344399;22;20010;-90
2021/07/19 00:23:16;;;;;;;11.70;9.65;;;26.90;95.40;;;;;;6344426;22;19998;-90
2021/07/19 00:25:42;;;;;;;16.83;10.75;;;26.80;95.40;;;;;;6344372;22;20005;-90
2021/07/19 00:28:08;;;;;;;14.77;10.40;;;26.80;95.50;;;;;;6344873;22;20005;-90
2021/07/19 00:30:36;;;;;;;12.75;10.70;;;26.70;95.60;;;;;;6343897;22;19994;-90
2021/07/19 00:33:04;;;;;;;16.33;10.70;;;26.70;95.70;;;;;;6344402;22;19995;-90
2021/07/19 00:35:30;;;;;;;11.82;10.52;;;26.70;95.70;;;;;;6344437;22;20003;-90
2021/07/19 00:37:56;;;;;;;17.02;10.68;;;26.60;95.70;;;;;;6344832;22;20093;-90
2021/07/19 00:40:27;;;;;;;12.70;10.63;;;26.60;95.80;;;;;;6343397;22;20007;-93
2021/07/19 00:42:54;;;;;;;15.05;10.90;;;26.60;95.80;;;;;;6344475;22;19995;-93
2021/07/19 00:45:25;;;;;;;12.20;10.55;;;26.60;95.90;;;;;;6344224;22;20448;-94
2021/07/19 00:47:53;;;;;;;13.52;11.07;;;26.60;95.90;;;;;;6344219;22;20023;-93
2021/07/19 00:50:20;;;;;;;17.58;10.88;;;26.60;96.00;;;;;;6344122;22;20431;-94
2021/07/19 00:52:46;;;;;;;13.70;11.02;;;26.60;96.10;;;;;;6343396;22;20015;-94
2021/07/19 00:55:13;;;;;;;15.65;11.05;;;26.60;96.00;;;;;;6344444;22;19998;-93
2021/07/19 00:57:43;;;;;;;12.25;10.98;;;26.60;96.00;;;;;;6344071;22;20029;-90
2021/07/19 01:00:11;;;;;;;13.82;10.63;;;26.60;96.10;;;;;;6344191;22;20421;-90
2021/07/19 01:02:41;;;;;;;12.93;10.77;;;26.50;96.10;;;;;;6344549;22;20006;-90
2021/07/19 01:05:09;;;;;;;11.77;10.40;;;26.50;96.10;;;;;;6344084;22;20071;-90
2021/07/19 01:07:38;;;;;;;11.82;10.60;;;26.50;96.20;;;;;;6344004;22;20073;-90
2021/07/19 01:10:13;;;;;;;12.13;10.82;;;26.40;96.30;;;;;;6344813;22;19998;-90
2021/07/19 01:12:42;;;;;;;14.05;10.57;;;26.40;96.30;;;;;;6344744;22;20003;-90
2021/07/19 01:15:08;;;;;;;13.48;10.43;;;26.30;96.30;;;;;;6344127;22;20041;-90
2021/07/19 01:17:34;;;;;;;13.70;11.07;;;26.30;96.40;;;;;;6343462;22;20328;-90
2021/07/19 01:20:01;;;;;;;15.90;11.45;;;26.30;96.50;;;;;;6343913;22;20038;-89
2021/07/19 01:22:54;;;;;;;12.43;10.60;;;26.30;96.50;;;;;;6343276;22;20036;-90
2021/07/19 01:25:43;;;;;;;17.10;11.57;;;26.20;96.50;;;;;;6343841;22;20010;-90
2021/07/19 01:28:27;;;;;;;15.57;12.00;;;26.20;96.70;;;;;;6345077;22;19999;-90
2021/07/19 01:30:55;;;;;;;14.30;10.77;;;26.10;96.80;;;;;;6345608;22;20006;-90
2021/07/19 01:33:23;;;;;;;15.40;11.75;;;26.10;96.90;;;;;;6345690;22;20006;-90
2021/07/19 01:35:51;;;;;;;12.48;11.18;;;26.10;96.90;;;;;;6345798;22;20350;-90
2021/07/19 01:38:18;;;;;;;12.43;11.13;;;26.10;97.00;;;;;;6345498;22;20002;-90
2021/07/19 01:40:45;;;;;;;12.27;11.07;;;26.10;97.00;;;;;;6345530;22;20010;-90
2021/07/19 01:43:12;;;;;;;12.68;10.40;;;26.10;97.00;;;;;;6345208;22;20002;-90
2021/07/19 01:45:38;;;;;;;15.68;11.07;;;26.00;97.00;;;;;;6345423;22;20003;-90
2021/07/19 01:48:07;;;;;;;13.75;10.95;;;26.00;97.10;;;;;;6345954;22;20397;-89
2021/07/19 01:50:35;;;;;;;14.30;12.15;;;26.00;97.20;;;;;;6346276;22;20004;-90
2021/07/19 01:53:03;;;;;;;15.02;11.00;;;26.00;97.20;;;;;;6345736;22;20019;-89
2021/07/19 01:55:30;;;;;;;15.85;12.18;;;26.00;97.20;;;;;;6345470;22;19998;-89
2021/07/19 01:57:57;;;;;;;13.88;11.00;;;26.00;97.30;;;;;;6345630;22;20041;-90
2021/07/19 02:00:23;;;;;;;16.48;12.30;;;26.00;97.30;;;;;;6344850;22;19998;-89
2021/07/19 02:02:51;;;;;;;13.27;10.88;;;26.00;97.30;;;;;;6345066;22;20077;-90
2021/07/19 02:05:19;;;;;;;11.75;10.15;;;26.00;97.30;;;;;;6346207;22;20009;-90
2021/07/19 02:07:51;;;;;;;13.02;10.38;;;26.00;97.30;;;;;;6345503;22;19999;-90
2021/07/19 02:10:18;;;;;;;12.10;10.05;;;26.00;97.20;;;;;;6345814;22;19999;-90
2021/07/19 02:12:45;;;;;;;16.13;10.25;;;26.00;97.10;;;;;;6344992;22;20010;-90
2021/07/19 02:15:15;;;;;;;15.68;10.70;;;26.00;97.10;;;;;;6345349;22;20030;-89
2021/07/19 02:17:54;;;;;;;13.25;10.57;;;26.00;97.10;;;;;;6346282;22;20006;-90
2021/07/19 02:20:20;;;;;;;14.70;11.07;;;26.00;97.20;;;;;;6345343;22;20002;-90
2021/07/19 02:22:50;;;;;;;14.50;11.15;;;26.10;97.20;;;;;;6344862;22;20002;-89
2021/07/19 02:25:16;;;;;;;12.82;10.95;;;26.00;97.20;;;;;;6344762;22;20002;-89
2021/07/19 02:27:45;;;;;;;18.23;11.90;;;26.00;97.30;;;;;;6345028;22;20002;-90
2021/07/19 02:30:14;;;;;;;16.25;11.48;;;26.00;97.30;;;;;;6346237;22;20009;-89
2021/07/19 02:32:42;;;;;;;15.43;11.40;;;26.00;97.30;;;;;;6345184;22;19998;-89
2021/07/19 02:35:09;;;;;;;16.52;11.57;;;26.00;97.60;;;;;;6345301;22;20258;-90
2021/07/19 02:37:37;;;;;;;16.55;11.88;;;26.00;97.40;;;;;;6343682;22;20214;-89
2021/07/19 02:40:06;;;;;;;12.55;10.80;;;26.10;97.40;;;;;;6344270;22;20028;-89
2021/07/19 02:42:35;;;;;;;14.55;11.00;;;26.00;97.30;;;;;;6344803;22;19999;-89
2021/07/19 02:45:05;;;;;;;14.13;11.60;;;26.10;97.30;;;;;;6344880;22;20014;-89
2021/07/19 02:47:31;;;;;;;13.60;10.32;;;26.10;97.30;;;;;;6344651;22;20002;-89
2021/07/19 02:49:57;;;;;;;17.55;11.48;;;26.10;97.40;;;;;;6344854;22;20007;-90
2021/07/19 02:52:23;;;;;;;15.60;11.35;;;26.10;97.40;;;;;;6344831;22;20386;-90
2021/07/19 02:54:50;;;;;;;11.38;10.13;;;26.20;97.40;;;;;;6344926;22;20030;-90
2021/07/19 02:57:16;;;;;;;13.23;11.10;;;26.20;97.40;;;;;;6344946;22;20121;-90
2021/07/19 02:59:42;;;;;;;13.75;10.50;;;26.20;97.40;;;;;;6344888;22;20484;-89
2021/07/19 03:02:10;;;;;;;13.98;11.27;;;26.20;97.40;;;;;;6344504;22;20006;-89
2021/07/19 03:04:38;;;;;;;16.90;11.63;;;26.30;97.40;;;;;;6345907;22;20465;-90
2021/07/19 03:07:06;;;;;;;16.17;12.32;;;26.30;97.50;;;;;;6344878;22;19998;-89
2021/07/19 03:09:34;;;;;;;13.75;10.88;;;26.40;97.40;;;;;;6344685;22;20048;-90
2021/07/19 03:12:01;;;;;;;16.30;11.50;;;26.30;97.40;;;;;;6344622;22;19998;-89
2021/07/19 03:14:31;;;;;;;14.38;11.20;;;26.40;97.30;;;;;;6344918;22;20013;-89
2021/07/19 03:16:57;;;;;;;16.60;12.13;;;26.40;97.30;;;;;;6345106;22;20081;-89
2021/07/19 03:19:23;;;;;;;12.35;10.98;;;26.40;97.20;;;;;;6344846;22;20440;-90
2021/07/19 03:21:53;;;;;;;14.80;10.90;;;26.50;97.10;;;;;;6345076;22;20085;-90
2021/07/19 03:24:21;;;;;;;16.73;11.65;;;26.50;97.00;;;;;;6344278;22;19995;-89
2021/07/19 03:26:48;;;;;;;16.67;10.90;;;26.50;97.00;;;;;;6344690;22;20086;-90
2021/07/19 03:29:15;;;;;;;16.98;11.55;;;26.60;97.00;;;;;;6344449;22;20081;-90
2021/07/19 03:31:42;;;;;;;13.68;11.88;;;26.60;96.90;;;;;;6344900;22;20006;-90
2021/07/19 03:34:10;;;;;;;20.27;12.27;;;26.60;96.80;;;;;;6345729;22;20006;-89
2021/07/19 03:36:37;;;;;;;12.03;10.60;;;26.60;96.70;;;;;;6344623;22;20006;-90
2021/07/19 03:39:05;;;;;;;12.43;10.85;;;26.60;96.80;;;;;;6345079;22;20528;-90
2021/07/19 03:41:31;;;;;;;14.55;11.27;;;26.70;96.70;;;;;;6344602;22;20003;-90
2021/07/19 03:43:59;;;;;;;15.00;10.77;;;26.70;96.70;;;;;;6344649;22;20421;-91
2021/07/19 03:46:26;;;;;;;15.85;11.30;;;26.70;96.70;;;;;;6344407;22;20025;-90
2021/07/19 03:48:52;;;;;;;18.25;12.45;;;26.80;96.70;;;;;;6344081;22;20028;-90
2021/07/19 18:18:56;;;;;;;13.52;8.52;;;25.60;99.90;;;;;;4912916;27;4167148;-94
2021/07/19 18:24:29;;;;;;;14.55;8.57;;;25.50;99.90;;;;;;5048679;28;20075;-94
2021/07/19 18:32:27;;;;;;;13.65;9.27;;;25.50;99.90;;;;;;5051890;28;20032;-93
2021/07/19 18:34:56;;;;;;;15.07;9.10;;;25.50;99.90;;;;;;5050974;28;20029;-93
2021/07/19 18:37:25;;;;;;;14.35;8.10;;;25.50;99.90;;;;;;5050492;28;20052;-93
2021/07/19 18:39:52;;;;;;;12.48;8.70;;;25.60;99.90;;;;;;5050598;28;20472;-93
2021/07/19 18:42:18;;;;;;;12.63;8.45;;;25.60;99.90;;;;;;5050429;28;20028;-92
2021/07/19 18:44:44;;;;;;;15.27;8.82;;;25.60;99.90;;;;;;5050561;28;20029;-93
2021/07/19 18:47:14;;;;;;;15.52;8.18;;;25.70;99.90;;;;;;5050329;28;20475;-93
2021/07/19 18:49:40;;;;;;;11.05;7.25;;;25.70;99.90;;;;;;5050955;28;20025;-94
2021/07/19 18:52:17;;;;;;;12.32;7.75;;;25.70;99.90;;;;;;5050179;28;20036;-95
2021/07/19 18:54:42;;;;;;;11.07;7.47;;;25.70;99.90;;;;;;5050191;28;20029;-92
2021/07/19 18:57:08;;;;;;;10.55;7.30;;;25.70;99.90;;;;;;5049799;28;20357;-93
2021/07/19 18:59:34;;;;;;;11.75;7.32;;;25.70;99.90;;;;;;5050029;28;20028;-93
2021/07/19 19:02:03;;;;;;;12.57;7.50;;;25.70;99.90;;;;;;5050454;28;20017;-93
2021/07/19 19:04:32;;;;;;;11.25;6.63;;;25.70;99.90;;;;;;5050104;28;20471;-93
2021/07/19 19:07:00;;;;;;;9.15;6.63;;;25.70;99.90;;;;;;5050181;28;20033;-93
2021/07/19 19:09:26;;;;;;;10.90;6.47;;;25.70;99.90;;;;;;5049807;28;20029;-92
2021/07/19 19:11:53;;;;;;;10.45;7.55;;;25.70;99.90;;;;;;5049692;28;20472;-92
2021/07/19 19:14:19;;;;;;;11.73;7.07;;;25.70;99.90;;;;;;5050033;28;20085;-94
2021/07/19 19:16:55;;;;;;;12.15;6.65;;;25.70;99.90;;;;;;5049926;28;20475;-93
2021/07/19 19:19:24;;;;;;;9.57;7.20;;;25.70;99.90;;;;;;5048987;28;20076;-91
2021/07/19 19:21:55;;;;;;;9.10;6.45;;;25.70;99.90;;;;;;5049711;28;20079;-93
2021/07/19 19:24:21;;;;;;;11.48;6.50;;;25.70;99.90;;;;;;5049485;28;20087;-92
2021/07/19 19:26:50;;;;;;;9.90;7.00;;;25.70;99.90;;;;;;5049938;28;20037;-93
2021/07/19 19:29:16;;;;;;;12.07;7.00;;;25.80;99.90;;;;;;5041375;28;20064;-92
2021/07/19 19:31:44;;;;;;;7.35;6.32;;;25.70;99.90;;;;;;5036181;28;20029;-92
2021/07/19 19:34:10;;;;;;;13.05;7.03;;;25.70;99.90;;;;;;5036404;28;20025;-93
2021/07/19 19:36:36;;;;;;;13.35;7.00;;;25.70;99.90;;;;;;5036005;28;20503;-92
2021/07/19 19:39:07;;;;;;;10.80;7.00;;;25.70;99.90;;;;;;5035963;28;20025;-92
2021/07/19 19:41:33;;;;;;;10.30;6.90;;;25.70;99.90;;;;;;5035973;28;20376;-91
2021/07/19 19:44:02;;;;;;;12.70;7.43;;;25.70;99.90;;;;;;5036118;28;20025;-92
2021/07/19 19:46:33;;;;;;;14.35;7.50;;;25.70;99.90;;;;;;5036304;28;20052;-92
2021/07/19 19:49:08;;;;;;;9.85;7.05;;;25.70;99.90;;;;;;5036531;28;20518;-93
2021/07/19 19:51:38;;;;;;;9.90;7.07;;;25.70;99.90;;;;;;5035904;28;20033;-92
2021/07/19 19:54:09;;;;;;;11.18;7.72;;;25.60;99.90;;;;;;5035685;28;20021;-92
2021/07/19 19:56:35;;;;;;;12.02;7.03;;;25.60;99.90;;;;;;5035802;28;20029;-92
2021/07/19 19:59:03;;;;;;;9.52;6.95;;;25.60;99.90;;;;;;5035689;28;20018;-91
2021/07/19 20:01:32;;;;;;;9.30;7.60;;;25.60;99.90;;;;;;5035563;28;20108;-92
2021/07/19 20:03:58;;;;;;;13.55;7.15;;;25.60;99.90;;;;;;5036161;28;20034;-91
2021/07/19 20:06:24;;;;;;;15.40;7.40;;;25.60;99.90;;;;;;5036210;28;20362;-91
2021/07/19 20:08:50;;;;;;;11.73;7.35;;;25.60;99.90;;;;;;5035653;28;20025;-92
2021/07/19 20:11:16;;;;;;;9.90;8.18;;;25.50;99.90;;;;;;5035807;28;20384;-90
2021/07/19 20:13:42;;;;;;;10.32;7.68;;;25.50;99.90;;;;;;5036330;28;20029;-90
2021/07/19 20:16:09;;;;;;;14.77;8.15;;;25.50;99.90;;;;;;5035501;28;20076;-92
2021/07/19 20:18:35;;;;;;;14.10;8.52;;;25.50;99.90;;;;;;5034508;28;20041;-93
2021/07/19 20:21:01;;;;;;;15.93;8.75;;;25.50;99.90;;;;;;5035807;28;20026;-92
2021/07/19 20:23:26;;;;;;;15.55;8.23;;;25.50;99.90;;;;;;5035650;28;20505;-91
2021/07/19 20:25:52;;;;;;;12.10;8.18;;;25.50;99.90;;;;;;5035322;28;20021;-93
2021/07/19 20:28:20;;;;;;;13.98;8.55;;;25.50;99.90;;;;;;5035645;28;20476;-91
2021/07/19 20:30:47;;;;;;;12.73;8.57;;;25.40;99.90;;;;;;5034767;28;20029;-91
2021/07/19 20:33:13;;;;;;;14.23;8.15;;;25.40;99.90;;;;;;5035239;28;20025;-93
2021/07/19 20:35:39;;;;;;;10.98;8.35;;;25.40;99.90;;;;;;5035607;28;20029;-91
2021/07/19 20:38:04;;;;;;;14.20;9.02;;;25.40;99.90;;;;;;5034813;28;20033;-91
2021/07/19 20:40:30;;;;;;;17.27;9.00;;;25.40;99.90;;;;;;5033909;28;20530;-92
2021/07/19 20:42:57;;;;;;;12.63;8.57;;;25.40;99.90;;;;;;5034924;28;20022;-93
2021/07/19 20:45:23;;;;;;;14.43;8.73;;;25.40;99.90;;;;;;5034593;28;20029;-91
2021/07/19 20:47:50;;;;;;;12.90;8.23;;;25.40;99.90;;;;;;5033128;28;20029;-93
2021/07/19 20:50:19;;;;;;;14.52;9.10;;;25.40;99.90;;;;;;5031220;28;20052;-92
2021/07/19 20:52:45;;;;;;;14.73;9.40;;;25.30;99.90;;;;;;5034787;28;20041;-92
2021/07/19 20:55:18;;;;;;;14.35;9.43;;;25.30;99.90;;;;;;5034533;28;20029;-94
2021/07/19 20:57:46;;;;;;;14.23;9.65;;;25.30;99.90;;;;;;5034300;28;20499;-92
2021/07/19 21:00:18;;;;;;;15.15;9.98;;;25.30;99.90;;;;;;5029092;28;20114;-93
2021/07/19 21:02:50;;;;;;;14.95;9.82;;;25.20;99.90;;;;;;5015176;28;20025;-91
2021/07/19 21:05:24;;;;;;;13.18;9.32;;;25.20;99.90;;;;;;5014831;28;20040;-93
2021/07/19 21:07:54;;;;;;;16.33;10.30;;;25.20;99.90;;;;;;5014759;28;20503;-93
2021/07/19 21:10:20;;;;;;;15.82;10.50;;;25.10;99.90;;;;;;5014751;28;20124;-91
2021/07/19 21:12:46;;;;;;;15.45;10.15;;;25.10;99.90;;;;;;4998209;28;20030;-91
2021/07/19 21:15:15;;;;;;;14.48;9.55;;;25.10;99.90;;;;;;5014234;28;20030;-95
2021/07/19 21:17:43;;;;;;;16.08;10.73;;;25.10;99.90;;;;;;5014205;28;20144;-91
2021/07/19 21:20:09;;;;;;;13.52;9.63;;;25.00;99.90;;;;;;5014351;28;20073;-92
2021/07/19 21:22:38;;;;;;;13.65;10.05;;;25.00;99.90;;;;;;5014463;28;20056;-93
2021/07/19 21:25:04;;;;;;;14.23;9.15;;;25.00;99.90;;;;;;5014477;28;20022;-93
2021/07/19 21:27:30;;;;;;;15.85;10.35;;;25.00;99.90;;;;;;5014899;28;20440;-91
2021/07/19 21:29:55;;;;;;;11.85;9.43;;;25.00;99.90;;;;;;5022804;28;20064;-90
2021/07/19 21:32:22;;;;;;;15.07;9.45;;;25.00;99.90;;;;;;5033876;28;20025;-92
2021/07/19 21:34:50;;;;;;;17.13;9.80;;;25.00;99.90;;;;;;5033876;28;20033;-93
2021/07/19 21:37:16;;;;;;;16.83;9.60;;;25.00;99.90;;;;;;5032233;28;20065;-90
2021/07/19 21:39:48;;;;;;;16.65;9.65;;;25.00;99.90;;;;;;5017016;28;20029;-95
2021/07/19 21:42:17;;;;;;;13.52;9.98;;;25.00;99.90;;;;;;5016903;28;20215;-94
2021/07/19 21:44:43;;;;;;;16.25;10.15;;;25.00;99.90;;;;;;5020393;28;20112;-92
2021/07/19 21:47:08;;;;;;;16.52;9.68;;;25.00;99.90;;;;;;5034498;28;20114;-92
2021/07/19 21:49:34;;;;;;;13.52;9.77;;;25.00;99.90;;;;;;5024300;28;20103;-92
2021/07/19 21:52:00;;;;;;;12.63;9.27;;;25.00;99.90;;;;;;5028174;28;20030;-92
2021/07/19 21:54:26;;;;;;;17.77;9.65;;;24.90;99.90;;;;;;5025107;28;20041;-92
2021/07/19 21:56:51;;;;;;;15.15;10.02;;;25.00;99.90;;;;;;5041271;23;20058;-94
2021/07/19 21:59:17;;;;;;;16.10;9.73;;;25.00;99.90;;;;;;4974567;28;20025;-90
2021/07/19 22:01:46;;;;;;;13.68;9.93;;;24.90;99.90;;;;;;4974636;28;20073;-92
2021/07/19 22:04:20;;;;;;;15.70;9.80;;;24.90;99.90;;;;;;4974487;28;20034;-90
2021/07/19 22:06:47;;;;;;;16.92;10.32;;;24.90;99.90;;;;;;4974227;28;20030;-92
2021/07/19 22:09:13;;;;;;;18.33;9.85;;;24.90;99.90;;;;;;4974370;28;20035;-91
2021/07/19 22:11:38;;;;;;;13.88;9.55;;;24.90;99.90;;;;;;4975070;28;20429;-91
2021/07/19 22:14:04;;;;;;;16.42;9.02;;;24.80;99.90;;;;;;4974705;28;20038;-90
2021/07/19 22:16:30;;;;;;;14.10;9.25;;;24.90;99.90;;;;;;4974617;28;20038;-92
2021/07/19 22:18:56;;;;;;;13.48;9.05;;;24.80;99.90;;;;;;4974455;28;20054;-91
2021/07/19 22:21:22;;;;;;;17.02;10.05;;;24.90;99.90;;;;;;4974644;28;20110;-91
2021/07/19 22:23:48;;;;;;;14.63;9.55;;;24.80;99.90;;;;;;4974267;28;20030;-91
2021/07/19 22:26:14;;;;;;;15.30;9.07;;;24.90;99.90;;;;;;4974933;28;20030;-91
2021/07/19 22:28:41;;;;;;;16.27;9.98;;;24.90;99.90;;;;;;4974747;28;20023;-92
2021/07/19 22:31:09;;;;;;;15.27;9.65;;;24.90;99.90;;;;;;4974674;28;20022;-91
2021/07/19 22:33:35;;;;;;;18.02;10.40;;;25.00;99.90;;;;;;4974592;28;20027;-92
2021/07/19 22:36:02;;;;;;;13.93;9.60;;;24.90;99.90;;;;;;4974419;28;20035;-93
2021/07/19 22:38:28;;;;;;;14.55;9.48;;;25.00;99.90;;;;;;4974256;28;20031;-91
2021/07/19 22:40:56;;;;;;;17.75;9.52;;;25.00;99.90;;;;;;4974831;28;20023;-92
2021/07/19 22:43:22;;;;;;;15.07;10.20;;;25.00;99.90;;;;;;4974509;28;20026;-91
2021/07/19 22:45:48;;;;;;;15.20;9.52;;;25.00;99.90;;;;;;4974075;28;20029;-91
2021/07/19 22:48:14;;;;;;;12.48;9.45;;;24.90;99.90;;;;;;4974100;28;20031;-93
2021/07/19 22:50:40;;;;;;;12.60;9.27;;;24.90;99.90;;;;;;4974121;28;20039;-92
2021/07/19 22:53:09;;;;;;;14.27;9.02;;;24.90;99.90;;;;;;4974059;28;20038;-92
2021/07/19 22:55:34;;;;;;;13.77;9.55;;;24.90;99.90;;;;;;4974236;28;20027;-91
2021/07/19 22:58:03;;;;;;;18.08;9.63;;;25.00;99.90;;;;;;4974127;28;20401;-91
2021/07/19 23:00:30;;;;;;;17.98;9.60;;;24.90;99.90;;;;;;4974212;28;20114;-92
2021/07/19 23:02:58;;;;;;;13.00;9.52;;;24.90;99.90;;;;;;4974214;28;20034;-91
2021/07/19 23:05:24;;;;;;;16.95;10.80;;;25.00;99.90;;;;;;4977074;28;20019;-90
2021/07/19 23:07:52;;;;;;;15.40;9.77;;;24.90;99.90;;;;;;4977366;28;20041;-91
2021/07/19 23:10:22;;;;;;;15.95;10.52;;;24.90;99.90;;;;;;4978000;28;20023;-92
2021/07/19 23:12:51;;;;;;;16.25;10.20;;;24.90;99.90;;;;;;4977777;28;20082;-92
2021/07/19 23:15:17;;;;;;;13.70;9.82;;;24.90;99.90;;;;;;4977901;28;20031;-92
2021/07/19 23:17:43;;;;;;;15.30;9.90;;;24.90;99.90;;;;;;4977396;28;20030;-91
2021/07/19 23:20:09;;;;;;;16.33;9.50;;;24.90;99.90;;;;;;4977561;28;20122;-91
